Time;durP1;ratioP1;P1;durP2;ratioP2;P2;SDS_P1;SDS_P2;PMS_P1;PMS_P2;Temp;Humidity;BMP_temperature;BMP_pressure;BME280_temperature;BME280_humidity;BME280_pressure;Samples;Min_cycle;Max_cycle;Signal;HPM_P1;HPM_P2
2022/12/02 00:01:00;;;;;;;44.10;23.50;;;3.70;99.90;;;;;;5104603;28;20540;-75
2022/12/02 00:03:26;;;;;;;40.15;20.95;;;3.70;99.90;;;;;;5106290;28;20058;-76
2022/12/02 00:05:56;;;;;;;43.65;23.17;;;3.60;99.90;;;;;;5102364;28;20092;-73
2022/12/02 00:08:23;;;;;;;;;;;3.70;99.90;;;;;;5099279;28;20063;-76
2022/12/02 00:10:51;;;;;;;40.85;20.90;;;3.80;99.90;;;;;;5107804;28;19956;-73
2022/12/02 00:13:27;;;;;;;41.85;22.55;;;3.80;99.90;;;;;;5100806;28;20400;-75
2022/12/02 00:15:58;;;;;;;39.92;22.05;;;3.90;99.90;;;;;;5106674;28;20032;-74
2022/12/02 00:18:24;;;;;;;43.08;22.27;;;3.80;99.90;;;;;;5095276;28;20055;-75
2022/12/02 00:20:50;;;;;;;44.17;23.00;;;3.80;99.90;;;;;;5101444;28;20462;-72
2022/12/02 00:23:15;;;;;;;41.83;22.63;;;3.70;99.90;;;;;;5102959;28;20028;-75
2022/12/02 00:25:47;;;;;;;44.83;23.25;;;3.70;99.90;;;;;;5087334;28;20582;-75
2022/12/02 00:28:13;;;;;;;45.75;23.30;;;3.70;99.90;;;;;;5101671;28;20040;-75
2022/12/02 00:30:39;;;;;;;40.03;22.70;;;3.60;99.90;;;;;;5094250;28;20051;-75
2022/12/02 00:33:06;;;;;;;43.92;24.05;;;3.60;99.90;;;;;;5101326;28;20467;-77
2022/12/02 00:35:31;;;;;;;40.47;22.70;;;3.60;99.90;;;;;;5109234;28;20124;-75
2022/12/02 00:37:57;;;;;;;42.25;22.35;;;3.60;99.90;;;;;;5108509;28;20039;-76
2022/12/02 00:40:22;;;;;;;42.78;22.27;;;3.60;99.90;;;;;;5105214;28;20456;-76
2022/12/02 00:42:48;;;;;;;41.03;22.48;;;3.60;99.90;;;;;;5099245;28;20020;-73
2022/12/02 00:47:59;;;;;;;40.35;22.15;;;3.60;99.90;;;;;;5096978;28;20138;-75
2022/12/02 00:50:26;;;;;;;41.38;22.45;;;3.60;99.90;;;;;;5110817;28;20106;-75
2022/12/02 00:52:52;;;;;;;51.60;24.17;;;3.60;99.90;;;;;;5108721;28;20020;-75
2022/12/02 00:55:18;;;;;;;36.00;20.73;;;3.70;99.90;;;;;;5093621;28;20392;-76
2022/12/02 00:57:43;;;;;;;45.67;23.33;;;3.70;99.90;;;;;;5099648;28;20031;-76
2022/12/02 01:00:10;;;;;;;43.08;22.98;;;3.70;99.90;;;;;;5100893;28;20027;-74
2022/12/02 01:02:36;;;;;;;45.75;23.23;;;3.80;99.90;;;;;;5099993;28;20534;-74
2022/12/02 01:05:03;;;;;;;45.42;22.58;;;3.80;99.90;;;;;;5104692;28;20472;-74
2022/12/02 01:07:28;;;;;;;40.80;22.40;;;3.80;99.90;;;;;;5105465;28;20500;-74
2022/12/02 01:09:54;;;;;;;45.55;22.27;;;3.80;99.90;;;;;;5083849;28;20143;-74
2022/12/02 01:12:20;;;;;;;44.60;23.45;;;3.80;99.90;;;;;;5089068;28;20071;-74
2022/12/02 01:14:45;;;;;;;44.10;22.13;;;3.80;99.90;;;;;;5090813;28;20032;-71
2022/12/02 01:17:11;;;;;;;42.75;22.30;;;3.70;99.90;;;;;;5090316;28;20036;-74
2022/12/02 01:19:37;;;;;;;46.28;22.95;;;3.70;99.90;;;;;;5090750;28;20039;-75
2022/12/02 01:22:02;;;;;;;46.42;23.02;;;3.60;99.90;;;;;;5088222;28;20055;-74
2022/12/02 01:24:28;;;;;;;43.00;22.92;;;3.70;99.90;;;;;;5081590;28;20028;-75
2022/12/02 01:26:53;;;;;;;40.10;21.02;;;3.70;99.90;;;;;;5089650;28;20028;-74
2022/12/02 01:29:19;;;;;;;45.88;23.40;;;3.60;99.90;;;;;;5084403;28;20137;-75
2022/12/02 01:31:44;;;;;;;42.28;22.90;;;3.60;99.90;;;;;;5089244;28;20039;-75
2022/12/02 01:34:10;;;;;;;42.88;23.27;;;3.60;99.90;;;;;;5089966;28;20023;-75
2022/12/02 01:36:36;;;;;;;43.95;21.75;;;3.60;99.90;;;;;;5090543;28;20388;-74
2022/12/02 01:39:01;;;;;;;39.60;22.70;;;3.70;99.90;;;;;;5086561;28;20032;-75
2022/12/02 01:41:27;;;;;;;44.28;23.23;;;3.60;99.90;;;;;;5086563;28;20471;-74
2022/12/02 01:43:52;;;;;;;42.40;22.75;;;3.60;99.90;;;;;;5090150;28;20439;-75
2022/12/02 01:46:18;;;;;;;43.92;23.67;;;3.50;99.90;;;;;;5090108;28;20027;-76
2022/12/02 01:48:44;;;;;;;42.58;22.23;;;3.50;99.90;;;;;;5089727;28;20059;-76
2022/12/02 01:51:10;;;;;;;49.08;22.67;;;3.50;99.90;;;;;;5090598;28;20028;-75
2022/12/02 01:53:36;;;;;;;43.92;23.10;;;3.50;99.90;;;;;;5090303;28;20492;-73
2022/12/02 01:56:02;;;;;;;51.75;23.58;;;3.50;99.90;;;;;;5088701;28;20485;-73
2022/12/02 01:58:30;;;;;;;48.38;24.50;;;3.50;99.90;;;;;;5089213;28;20049;-74
2022/12/02 02:00:56;;;;;;;46.35;22.95;;;3.50;99.90;;;;;;5082826;28;20073;-74
2022/12/02 02:03:23;;;;;;;45.13;24.20;;;3.50;99.90;;;;;;5087069;28;20024;-74
2022/12/02 02:05:50;;;;;;;42.67;23.08;;;3.40;99.90;;;;;;5087081;28;20099;-72
2022/12/02 02:08:16;;;;;;;45.50;23.50;;;3.60;99.90;;;;;;5071225;28;20044;-75
2022/12/02 02:10:44;;;;;;;43.42;22.13;;;3.60;99.90;;;;;;5099142;28;20047;-73
2022/12/02 02:13:12;;;;;;;46.85;22.83;;;3.50;99.90;;;;;;5100889;28;20110;-76
2022/12/02 02:15:39;;;;;;;45.65;23.25;;;3.60;99.90;;;;;;5101220;28;20059;-74
2022/12/02 02:18:06;;;;;;;43.90;22.05;;;3.60;99.90;;;;;;5100608;28;20032;-74
2022/12/02 02:20:33;;;;;;;42.47;22.42;;;3.60;99.90;;;;;;5100885;28;20062;-74
2022/12/02 02:23:13;;;;;;;46.95;23.45;;;3.60;99.90;;;;;;5104063;28;20082;-74
2022/12/02 02:25:44;;;;;;;50.67;24.95;;;3.60;99.90;;;;;;5092913;28;20034;-74
2022/12/02 02:28:11;;;;;;;43.38;22.20;;;3.60;99.90;;;;;;5099579;28;20055;-74
2022/12/02 02:44:56;;;;;;;39.60;22.30;;;3.50;99.90;;;;;;5099164;28;20061;-74
2022/12/02 02:47:21;;;;;;;46.63;23.80;;;3.50;99.90;;;;;;5104245;28;20520;-75
2022/12/02 02:49:47;;;;;;;48.10;23.65;;;3.50;99.90;;;;;;5100432;28;20123;-73
2022/12/02 02:52:13;;;;;;;45.88;22.85;;;3.50;99.90;;;;;;5105316;28;20082;-75
2022/12/02 02:54:38;;;;;;;44.78;22.70;;;3.50;99.90;;;;;;5110430;28;20103;-75
2022/12/02 02:57:04;;;;;;;45.40;23.38;;;3.50;99.90;;;;;;5097920;28;20101;-75
2022/12/02 02:59:30;;;;;;;50.28;24.35;;;3.50;99.90;;;;;;5104860;28;20448;-75
2022/12/02 03:01:55;;;;;;;46.63;23.17;;;3.40;99.90;;;;;;5105802;28;20047;-75
2022/12/02 03:04:23;;;;;;;40.67;22.27;;;3.50;99.90;;;;;;5095372;28;20024;-75
2022/12/02 03:06:49;;;;;;;45.92;23.10;;;3.50;99.90;;;;;;5106658;28;20027;-72
2022/12/02 03:09:17;;;;;;;43.28;21.52;;;3.60;99.90;;;;;;5102220;28;20047;-76
2022/12/02 03:11:45;;;;;;;43.28;22.85;;;3.60;99.90;;;;;;5106482;28;20023;-75
2022/12/02 03:15:02;;;;;;;43.47;22.63;;;3.60;99.90;;;;;;5096538;28;20484;-75
2022/12/02 03:17:27;;;;;;;40.90;21.60;;;3.50;99.90;;;;;;5110888;28;20042;-75
2022/12/02 03:19:53;;;;;;;47.03;24.23;;;3.60;99.90;;;;;;5096141;28;20376;-74
2022/12/02 03:22:19;;;;;;;42.38;23.30;;;3.50;99.90;;;;;;5082044;28;20076;-75
2022/12/02 03:24:45;;;;;;;45.75;23.10;;;3.40;99.90;;;;;;5105990;28;20027;-74
2022/12/02 03:27:12;;;;;;;47.45;23.02;;;3.40;99.90;;;;;;5104646;28;20134;-75
2022/12/02 03:29:39;;;;;;;47.90;22.30;;;3.40;99.90;;;;;;5096993;28;20495;-76
2022/12/02 03:32:05;;;;;;;45.92;23.05;;;3.50;99.90;;;;;;5094902;28;20036;-75
2022/12/02 03:34:31;;;;;;;42.30;22.17;;;3.50;99.90;;;;;;5103374;28;20103;-74
2022/12/02 03:36:58;;;;;;;44.25;23.45;;;3.50;99.90;;;;;;5104684;28;20036;-75
2022/12/02 03:39:23;;;;;;;41.83;22.13;;;3.50;99.90;;;;;;5093588;28;20431;-75
2022/12/02 03:41:49;;;;;;;49.28;23.33;;;3.40;99.90;;;;;;5099851;28;20028;-73
2022/12/02 03:44:15;;;;;;;50.03;24.20;;;3.40;99.90;;;;;;5112624;28;20032;-75
2022/12/02 03:46:42;;;;;;;45.35;25.05;;;3.30;99.90;;;;;;5107794;28;20028;-75
2022/12/02 03:49:09;;;;;;;43.67;22.27;;;3.30;99.90;;;;;;5107325;28;20683;-74
2022/12/02 03:51:35;;;;;;;48.65;24.20;;;3.30;99.90;;;;;;5104079;28;20032;-77
2022/12/02 03:54:01;;;;;;;45.08;24.33;;;3.30;99.90;;;;;;5106239;28;20093;-75
2022/12/02 03:56:27;;;;;;;44.65;23.98;;;3.30;99.90;;;;;;5099391;28;20590;-82
2022/12/02 03:58:53;;;;;;;43.85;22.80;;;3.30;99.90;;;;;;5094723;28;20112;-74
2022/12/02 04:01:20;;;;;;;42.50;23.02;;;3.30;99.90;;;;;;5105544;28;20373;-75
2022/12/02 04:03:45;;;;;;;46.95;24.33;;;3.30;99.90;;;;;;5098374;28;20039;-73
2022/12/02 04:06:11;;;;;;;44.25;23.30;;;3.20;99.90;;;;;;5096422;28;20040;-76
2022/12/02 04:08:37;;;;;;;48.35;24.42;;;3.20;99.90;;;;;;5108748;28;20434;-75
2022/12/02 04:11:03;;;;;;;52.28;24.55;;;3.20;99.90;;;;;;5093182;27;20059;-75
2022/12/02 04:13:29;;;;;;;44.72;22.63;;;3.20;99.90;;;;;;5099956;28;20027;-75
2022/12/02 04:15:55;;;;;;;44.97;23.67;;;3.20;99.90;;;;;;5095005;28;20091;-76
2022/12/02 04:18:20;;;;;;;44.78;23.08;;;3.30;99.90;;;;;;5107621;28;20028;-75
2022/12/02 04:20:46;;;;;;;52.17;24.67;;;3.30;99.90;;;;;;5096045;28;20024;-73
2022/12/02 04:23:11;;;;;;;41.75;22.38;;;3.30;99.90;;;;;;5086224;28;20486;-75
2022/12/02 04:25:37;;;;;;;44.80;23.05;;;3.20;99.90;;;;;;5094164;28;20027;-76
2022/12/02 04:28:03;;;;;;;46.95;23.40;;;3.20;99.90;;;;;;5096380;28;20090;-74
2022/12/02 04:30:29;;;;;;;44.38;22.25;;;3.20;99.90;;;;;;5092070;28;20078;-74
2022/12/02 04:32:54;;;;;;;47.42;24.60;;;3.20;99.90;;;;;;5092065;28;20028;-75
2022/12/02 04:35:20;;;;;;;44.65;22.73;;;3.20;99.90;;;;;;5102927;28;20035;-75
2022/12/02 04:37:45;;;;;;;40.72;21.63;;;3.20;99.90;;;;;;5098258;28;20028;-74
2022/12/02 04:40:12;;;;;;;49.03;23.48;;;3.30;99.90;;;;;;5095795;28;20393;-76
2022/12/02 04:42:37;;;;;;;42.88;22.30;;;3.30;99.90;;;;;;5095355;28;20031;-75
2022/12/02 04:45:04;;;;;;;46.75;22.75;;;3.30;99.90;;;;;;5102212;28;20184;-76
2022/12/02 04:47:30;;;;;;;45.80;24.13;;;3.30;99.90;;;;;;5103845;28;20040;-74
2022/12/02 04:49:56;;;;;;;51.63;24.30;;;3.20;99.90;;;;;;5105063;28;20043;-75
2022/12/02 04:52:22;;;;;;;42.08;22.77;;;3.30;99.90;;;;;;5101444;28;20392;-76
2022/12/02 04:54:47;;;;;;;48.97;24.17;;;3.20;99.90;;;;;;5097072;28;20081;-73
2022/12/02 04:57:13;;;;;;;46.63;23.17;;;3.30;99.90;;;;;;5099961;28;20504;-75
2022/12/02 04:59:39;;;;;;;42.83;23.15;;;3.30;99.90;;;;;;5104295;28;20039;-75
2022/12/02 05:02:04;;;;;;;42.78;22.45;;;3.40;99.90;;;;;;5095734;28;20434;-75
2022/12/02 05:04:30;;;;;;;47.70;23.33;;;3.40;99.90;;;;;;5097361;28;20039;-75
2022/12/02 05:06:55;;;;;;;46.72;23.08;;;3.40;99.90;;;;;;5108317;28;20400;-76
2022/12/02 05:09:21;;;;;;;47.47;23.95;;;3.30;99.90;;;;;;5097196;28;20055;-76
2022/12/02 05:11:47;;;;;;;48.53;24.40;;;3.30;99.90;;;;;;5100162;28;20028;-72
2022/12/02 05:14:12;;;;;;;47.15;23.02;;;3.30;99.90;;;;;;5089028;28;20129;-75
2022/12/02 05:16:38;;;;;;;49.60;24.77;;;3.30;99.90;;;;;;5100954;28;20023;-74
2022/12/02 05:19:03;;;;;;;52.50;24.45;;;3.30;99.90;;;;;;5095091;28;20044;-76
2022/12/02 05:21:29;;;;;;;47.35;24.00;;;3.30;99.90;;;;;;5101977;28;20412;-75
2022/12/02 05:23:54;;;;;;;51.50;24.45;;;3.30;99.90;;;;;;5101951;28;20028;-75
2022/12/02 05:26:20;;;;;;;48.10;23.88;;;3.20;99.90;;;;;;5102554;28;20097;-76
2022/12/02 05:28:46;;;;;;;50.60;23.92;;;3.20;99.90;;;;;;5093051;28;20042;-73
2022/12/02 05:31:11;;;;;;;50.17;24.08;;;3.20;99.90;;;;;;5101390;28;20046;-76
2022/12/02 05:33:37;;;;;;;47.13;23.90;;;3.20;99.90;;;;;;5102361;28;20040;-72
2022/12/02 05:36:02;;;;;;;45.38;23.42;;;3.20;99.90;;;;;;5105724;28;20023;-75
2022/12/02 05:38:28;;;;;;;45.85;23.05;;;3.20;99.90;;;;;;5097301;28;20081;-74
2022/12/02 05:40:55;;;;;;;46.90;23.33;;;3.30;99.90;;;;;;5097874;28;20031;-75
2022/12/02 05:43:23;;;;;;;44.25;23.98;;;3.30;99.90;;;;;;5094415;28;20032;-75
2022/12/02 05:45:50;;;;;;;47.60;24.65;;;3.30;99.90;;;;;;5094872;28;20051;-73
2022/12/02 05:48:17;;;;;;;55.17;24.92;;;3.30;99.90;;;;;;5094972;28;20047;-75
2022/12/02 05:50:44;;;;;;;50.83;24.92;;;3.40;99.90;;;;;;5103445;28;20404;-75
2022/12/02 05:53:23;;;;;;;45.72;23.35;;;3.40;99.90;;;;;;5091938;28;20024;-76
2022/12/02 05:55:50;;;;;;;50.05;24.40;;;3.30;99.90;;;;;;5100846;28;20027;-73
2022/12/02 05:58:17;;;;;;;56.08;26.35;;;3.30;99.90;;;;;;5106184;28;20027;-75
2022/12/02 06:00:44;;;;;;;49.15;24.55;;;3.30;99.90;;;;;;5093815;28;20582;-74
2022/12/02 06:03:19;;;;;;;49.20;24.33;;;3.30;99.90;;;;;;5100402;28;20039;-75
2022/12/02 06:05:46;;;;;;;54.22;24.48;;;3.30;99.90;;;;;;5102700;28;20024;-73
2022/12/02 06:08:20;;;;;;;52.15;25.73;;;3.20;99.90;;;;;;5101284;28;20042;-75
2022/12/02 06:10:52;;;;;;;54.13;26.15;;;3.10;99.90;;;;;;5103783;28;20051;-73
2022/12/02 06:13:22;;;;;;;50.20;24.52;;;3.10;99.90;;;;;;5100179;28;20024;-75
2022/12/02 06:15:49;;;;;;;50.00;25.20;;;3.20;99.90;;;;;;5097399;28;20054;-72
2022/12/02 06:18:22;;;;;;;49.70;23.95;;;3.20;99.90;;;;;;5100604;28;20101;-76
2022/12/02 06:20:56;;;;;;;51.50;25.77;;;3.10;99.90;;;;;;5100005;28;20035;-72
2022/12/02 06:23:24;;;;;;;54.50;24.55;;;3.10;99.90;;;;;;5095078;28;20031;-75
2022/12/02 06:25:51;;;;;;;54.33;25.45;;;3.10;99.90;;;;;;5092849;28;20792;-73
2022/12/02 06:28:25;;;;;;;52.58;26.33;;;3.10;99.90;;;;;;5101233;28;20119;-76
2022/12/02 06:30:57;;;;;;;50.85;25.13;;;3.10;99.90;;;;;;5097759;28;20034;-71
2022/12/02 06:33:31;;;;;;;55.28;27.05;;;3.00;99.90;;;;;;5103657;28;20031;-76
2022/12/02 06:36:08;;;;;;;54.92;26.60;;;3.00;99.90;;;;;;5099217;28;20047;-76
2022/12/02 06:38:38;;;;;;;56.03;26.25;;;3.00;99.90;;;;;;5096678;28;20036;-76
2022/12/02 06:41:15;;;;;;;54.80;25.10;;;3.00;99.90;;;;;;5101577;28;20023;-75
2022/12/02 06:45:03;;;;;;;53.47;25.38;;;3.00;99.90;;;;;;5101715;28;20381;-74
2022/12/02 06:46:27;;;;;;;54.53;25.17;;;3.00;99.90;;;;;;5088514;28;20024;-74
2022/12/02 06:48:53;;;;;;;55.78;26.50;;;3.00;99.90;;;;;;5097383;28;20048;-73
2022/12/02 06:51:19;;;;;;;51.72;24.92;;;3.00;99.90;;;;;;5095572;28;20034;-78
2022/12/02 06:53:46;;;;;;;59.83;26.35;;;3.00;99.90;;;;;;5102498;28;20109;-73
2022/12/02 06:56:30;;;;;;;51.35;25.08;;;3.00;99.90;;;;;;5096489;28;20461;-75
2022/12/02 06:59:03;;;;;;;54.17;24.85;;;3.00;99.90;;;;;;5075370;28;20059;-75
2022/12/02 07:01:37;;;;;;;60.15;26.35;;;3.00;99.90;;;;;;5097662;28;20023;-77
2022/12/02 07:04:08;;;;;;;52.88;26.73;;;3.00;99.90;;;;;;5100867;28;20032;-74
2022/12/02 07:06:39;;;;;;;50.72;25.85;;;3.10;99.90;;;;;;5105780;28;20080;-77
2022/12/02 07:09:25;;;;;;;55.50;25.83;;;3.00;99.90;;;;;;5094424;28;20040;-72
2022/12/02 07:11:52;;;;;;;55.38;24.83;;;3.00;99.90;;;;;;5097671;28;20040;-72
2022/12/02 07:14:36;;;;;;;54.83;25.60;;;3.10;99.90;;;;;;5105122;28;20062;-76
2022/12/02 07:17:18;;;;;;;54.85;26.85;;;3.20;99.90;;;;;;5109287;28;20032;-75
2022/12/02 07:19:46;;;;;;;57.63;26.38;;;3.10;99.90;;;;;;5101483;28;20409;-74
2022/12/02 07:22:22;;;;;;;57.45;26.45;;;3.20;99.90;;;;;;5109957;28;20036;-76
2022/12/02 07:25:02;;;;;;;64.43;27.83;;;3.30;99.90;;;;;;5102339;28;20038;-73
2022/12/02 07:27:30;;;;;;;60.50;25.45;;;3.20;99.90;;;;;;5104466;28;20039;-76
2022/12/02 07:29:56;;;;;;;58.85;27.38;;;3.20;99.90;;;;;;5099680;28;20032;-73
2022/12/02 07:32:22;;;;;;;59.88;28.15;;;3.20;99.90;;;;;;5102216;28;20089;-75
2022/12/02 07:34:48;;;;;;;58.95;26.10;;;3.20;99.90;;;;;;5114576;28;20031;-73
2022/12/02 07:37:14;;;;;;;61.90;27.80;;;3.20;99.90;;;;;;5104528;28;20427;-77
2022/12/02 07:39:39;;;;;;;61.67;27.90;;;3.20;99.90;;;;;;5108101;28;20040;-77
2022/12/02 07:42:05;;;;;;;58.10;26.08;;;3.20;99.90;;;;;;5098141;28;20024;-79
2022/12/02 07:44:31;;;;;;;56.80;27.02;;;3.20;99.90;;;;;;5102405;28;20099;-76
2022/12/02 07:46:56;;;;;;;58.95;26.83;;;3.20;99.90;;;;;;5108331;28;20038;-74
2022/12/02 07:49:22;;;;;;;59.15;27.35;;;3.20;99.90;;;;;;5083592;28;20063;-73
2022/12/02 07:51:48;;;;;;;63.03;28.95;;;3.20;99.90;;;;;;5111007;28;20023;-73
2022/12/02 07:54:13;;;;;;;59.28;26.88;;;3.20;99.90;;;;;;5107471;28;20108;-75
2022/12/02 07:56:39;;;;;;;61.20;27.45;;;3.20;99.90;;;;;;5112825;28;20140;-75
2022/12/02 07:59:04;;;;;;;70.57;29.05;;;3.20;99.90;;;;;;5110341;28;20031;-78
2022/12/02 08:01:30;;;;;;;61.05;27.65;;;3.10;99.90;;;;;;5107066;28;20080;-73
2022/12/02 08:03:56;;;;;;;65.78;29.15;;;3.20;99.90;;;;;;5098347;28;20084;-71
2022/12/02 08:06:21;;;;;;;61.90;28.33;;;3.30;99.90;;;;;;5110979;28;20020;-76
2022/12/02 08:08:47;;;;;;;65.32;27.95;;;3.20;99.90;;;;;;5108082;28;20097;-70
2022/12/02 08:11:13;;;;;;;64.43;27.52;;;3.20;99.90;;;;;;5095504;28;20059;-71
2022/12/02 08:13:38;;;;;;;62.17;28.65;;;3.30;99.90;;;;;;5101257;28;20384;-77
2022/12/02 08:16:04;;;;;;;58.60;27.83;;;3.20;99.90;;;;;;5105271;28;20080;-74
2022/12/02 08:18:30;;;;;;;64.28;28.25;;;3.30;99.90;;;;;;5098499;28;20036;-74
2022/12/02 08:20:55;;;;;;;63.38;28.90;;;3.30;99.90;;;;;;5098059;28;20392;-78
2022/12/02 08:23:21;;;;;;;66.72;28.65;;;3.30;99.90;;;;;;5094325;28;20421;-76
2022/12/02 08:25:46;;;;;;;64.93;28.92;;;3.30;99.90;;;;;;5084634;28;20115;-79
2022/12/02 08:28:13;;;;;;;70.90;30.08;;;3.30;99.90;;;;;;5097205;28;20019;-76
2022/12/02 08:30:40;;;;;;;68.28;28.38;;;3.30;99.90;;;;;;5099538;28;20024;-75
2022/12/02 08:33:05;;;;;;;70.93;30.02;;;3.20;99.90;;;;;;5105540;28;20357;-73
2022/12/02 08:35:31;;;;;;;63.47;29.40;;;3.20;99.90;;;;;;5105288;28;20101;-88
2022/12/02 08:37:57;;;;;;;67.57;28.42;;;3.20;99.90;;;;;;5102408;28;20396;-74
2022/12/02 08:40:23;;;;;;;65.72;30.48;;;3.10;99.90;;;;;;5096309;28;20027;-74
2022/12/02 08:42:48;;;;;;;65.43;30.52;;;3.10;99.90;;;;;;5088337;28;20377;-72
2022/12/02 08:45:14;;;;;;;66.47;28.70;;;3.10;99.90;;;;;;5101361;28;20032;-72
2022/12/02 08:47:40;;;;;;;68.10;29.30;;;3.10;99.90;;;;;;5102083;28;20020;-84
2022/12/02 08:50:07;;;;;;;63.65;27.95;;;3.10;99.90;;;;;;5099488;28;20032;-73
2022/12/02 08:52:32;;;;;;;64.72;28.95;;;3.10;99.90;;;;;;5094018;28;20028;-74
2022/12/02 08:54:58;;;;;;;57.33;27.38;;;3.10;99.90;;;;;;5094797;28;20032;-75
2022/12/02 08:57:24;;;;;;;69.38;29.15;;;3.10;99.90;;;;;;5100335;28;20491;-75
2022/12/02 08:59:50;;;;;;;65.35;27.98;;;3.10;99.90;;;;;;5106740;28;20434;-74
2022/12/02 09:02:16;;;;;;;61.10;26.15;;;3.10;99.90;;;;;;5102989;28;20061;-74
2022/12/02 09:04:41;;;;;;;61.20;27.70;;;3.10;99.90;;;;;;5105465;28;20428;-74
2022/12/02 09:07:07;;;;;;;65.68;27.80;;;3.00;99.90;;;;;;5100687;28;20078;-74
2022/12/02 09:09:33;;;;;;;61.78;27.63;;;3.10;99.90;;;;;;5098033;28;20050;-74
2022/12/02 09:11:59;;;;;;;63.53;27.20;;;3.10;99.90;;;;;;5102904;28;20044;-74
2022/12/02 09:14:25;;;;;;;57.22;26.90;;;3.00;99.90;;;;;;5106631;28;20035;-74
2022/12/02 09:16:51;;;;;;;66.95;28.88;;;3.00;99.90;;;;;;5082411;28;20448;-72
2022/12/02 09:19:16;;;;;;;60.78;26.80;;;3.10;99.90;;;;;;5103688;28;20038;-73
2022/12/02 09:21:42;;;;;;;56.78;25.95;;;3.10;99.90;;;;;;5102290;28;20174;-70
2022/12/02 09:24:07;;;;;;;59.78;25.77;;;3.10;99.90;;;;;;5101477;28;20027;-74
2022/12/02 09:26:33;;;;;;;47.17;23.00;;;3.00;99.90;;;;;;5108955;28;20088;-74
2022/12/02 09:28:59;;;;;;;54.13;25.40;;;3.00;99.90;;;;;;5101743;28;20432;-76
2022/12/02 09:31:25;;;;;;;51.80;23.73;;;3.00;99.90;;;;;;5104736;28;20058;-72
2022/12/02 09:33:51;;;;;;;54.95;24.52;;;3.00;99.90;;;;;;5100198;28;20152;-72
2022/12/02 09:36:16;;;;;;;48.05;23.80;;;3.00;99.90;;;;;;5100722;28;20468;-71
2022/12/02 09:38:42;;;;;;;50.60;23.15;;;3.10;99.90;;;;;;5104798;28;20438;-73
2022/12/02 09:41:08;;;;;;;51.25;23.15;;;3.10;99.90;;;;;;5085598;28;20077;-71
2022/12/02 09:43:34;;;;;;;49.15;23.58;;;3.10;99.90;;;;;;5095874;28;20027;-72
2022/12/02 09:46:00;;;;;;;48.83;22.20;;;3.20;99.90;;;;;;5084485;28;20073;-71
2022/12/02 09:48:27;;;;;;;43.58;21.27;;;3.10;99.90;;;;;;5091472;28;20484;-71
2022/12/02 09:50:55;;;;;;;44.35;21.42;;;3.20;99.90;;;;;;5100408;28;20032;-72
2022/12/02 09:53:22;;;;;;;44.70;21.25;;;3.10;99.90;;;;;;5099054;28;20077;-70
2022/12/02 09:55:47;;;;;;;42.22;19.80;;;3.20;99.90;;;;;;5105428;28;20028;-73
2022/12/02 09:58:18;;;;;;;43.88;18.70;;;3.20;99.90;;;;;;5099491;28;20020;-70
2022/12/02 10:00:45;;;;;;;42.67;19.38;;;3.20;99.90;;;;;;5095631;28;20039;-70
2022/12/02 10:03:15;;;;;;;36.33;17.38;;;3.20;99.90;;;;;;5094865;28;20117;-70
2022/12/02 10:05:41;;;;;;;33.90;17.25;;;3.20;99.90;;;;;;5090585;28;20142;-71
2022/12/02 10:08:14;;;;;;;33.67;17.58;;;3.20;99.90;;;;;;5097166;28;20110;-70
2022/12/02 10:10:41;;;;;;;33.67;17.05;;;3.20;99.90;;;;;;5092176;28;20036;-72
2022/12/02 10:13:15;;;;;;;30.27;16.02;;;3.20;99.90;;;;;;5095840;28;20276;-70
2022/12/02 10:15:42;;;;;;;32.35;15.13;;;3.20;99.90;;;;;;5101114;28;20051;-70
2022/12/02 10:18:36;;;;;;;31.30;15.70;;;3.20;99.90;;;;;;5090233;28;20113;-71
2022/12/02 10:21:02;;;;;;;25.80;14.40;;;3.20;99.90;;;;;;5075170;28;20051;-70
2022/12/02 10:23:28;;;;;;;30.20;15.50;;;3.20;99.90;;;;;;5101200;28;20032;-71
2022/12/02 10:26:09;;;;;;;30.80;15.10;;;3.10;99.90;;;;;;5089285;28;20056;-71
2022/12/02 10:28:36;;;;;;;33.08;16.45;;;3.10;99.90;;;;;;5094789;28;20413;-71
2022/12/02 10:31:12;;;;;;;30.48;15.20;;;3.10;99.90;;;;;;5098890;28;20034;-70
2022/12/02 10:33:49;;;;;;;31.95;14.43;;;3.10;99.90;;;;;;5101676;28;20036;-71
2022/12/02 10:36:31;;;;;;;31.05;15.73;;;3.10;99.90;;;;;;5090110;28;20109;-71
2022/12/02 10:39:21;;;;;;;33.10;16.50;;;3.00;99.90;;;;;;5096127;28;20725;-71
2022/12/02 10:42:08;;;;;;;33.17;14.75;;;3.00;99.90;;;;;;5089572;28;20028;-73
2022/12/02 10:44:37;;;;;;;28.38;14.65;;;3.10;99.90;;;;;;5099214;28;20024;-71
2022/12/02 10:47:23;;;;;;;30.50;15.48;;;3.10;99.90;;;;;;5092216;28;20033;-71
2022/12/02 10:49:53;;;;;;;28.98;14.52;;;3.00;99.90;;;;;;5069926;28;20029;-73
2022/12/02 10:52:34;;;;;;;28.73;14.13;;;3.10;99.90;;;;;;5092291;28;20422;-71
2022/12/02 10:55:01;;;;;;;28.38;14.43;;;3.10;99.90;;;;;;5107581;28;20028;-71
2022/12/02 10:57:32;;;;;;;27.80;14.80;;;3.10;99.90;;;;;;5097478;28;20027;-70
2022/12/02 11:00:04;;;;;;;25.92;13.75;;;3.10;99.90;;;;;;5098210;28;20533;-72
2022/12/02 11:02:38;;;;;;;28.30;13.70;;;3.10;99.90;;;;;;5093007;28;20024;-72
2022/12/02 11:05:20;;;;;;;28.77;15.10;;;3.00;99.90;;;;;;5105255;28;20445;-70
2022/12/02 11:08:01;;;;;;;30.10;14.75;;;3.00;99.90;;;;;;5103473;28;20136;-73
2022/12/02 11:10:38;;;;;;;28.05;14.75;;;3.10;99.90;;;;;;5091864;28;20062;-72
2022/12/02 11:13:26;;;;;;;23.58;12.45;;;3.10;99.90;;;;;;5089940;28;20100;-71
2022/12/02 11:15:52;;;;;;;25.52;12.88;;;3.10;99.90;;;;;;5063068;28;20033;-74
2022/12/02 11:18:30;;;;;;;27.13;13.02;;;3.10;99.90;;;;;;5091139;28;20044;-72
2022/12/02 11:21:27;;;;;;;22.20;12.35;;;3.10;99.90;;;;;;5098053;28;20039;-71
2022/12/02 11:24:20;;;;;;;19.33;10.80;;;3.20;99.90;;;;;;5097031;28;20028;-72
2022/12/02 11:26:58;;;;;;;21.98;11.98;;;3.30;99.90;;;;;;5098395;28;20024;-75
2022/12/02 11:29:25;;;;;;;18.58;10.57;;;3.20;99.90;;;;;;5092963;28;20111;-73
2022/12/02 11:32:09;;;;;;;21.25;10.95;;;3.30;99.90;;;;;;5098369;28;20032;-73
2022/12/02 11:34:46;;;;;;;20.88;11.43;;;3.30;99.90;;;;;;5094551;28;20027;-71
2022/12/02 11:37:27;;;;;;;21.85;11.18;;;3.30;99.90;;;;;;5102524;28;20028;-71
2022/12/02 11:40:15;;;;;;;20.27;10.80;;;3.30;99.90;;;;;;5071783;28;20115;-72
2022/12/02 11:42:44;;;;;;;18.40;10.40;;;3.30;99.90;;;;;;5088818;28;20122;-75
2022/12/02 11:45:15;;;;;;;21.58;11.38;;;3.30;99.90;;;;;;5100674;28;20035;-73
2022/12/02 11:47:53;;;;;;;21.23;11.05;;;3.30;99.90;;;;;;5094895;28;20027;-72
2022/12/02 11:50:19;;;;;;;21.23;11.90;;;3.20;99.90;;;;;;5091585;28;20472;-76
2022/12/02 11:52:51;;;;;;;17.92;10.05;;;3.20;99.90;;;;;;5099618;28;20059;-76
2022/12/02 11:55:18;;;;;;;17.83;9.80;;;3.30;99.90;;;;;;5098670;28;20082;-77
2022/12/02 11:57:56;;;;;;;18.08;9.95;;;3.30;99.90;;;;;;5104938;28;20048;-76
2022/12/02 12:00:30;;;;;;;20.52;9.80;;;3.20;99.90;;;;;;5094677;28;20039;-75
2022/12/02 12:03:16;;;;;;;17.90;10.63;;;3.20;99.90;;;;;;5081680;28;20123;-75
2022/12/02 12:06:08;;;;;;;23.45;10.45;;;3.10;99.90;;;;;;5082431;28;20059;-75
2022/12/02 12:08:35;;;;;;;17.88;10.48;;;3.10;99.90;;;;;;5066837;28;20024;-72
2022/12/02 12:11:28;;;;;;;19.33;10.40;;;3.10;99.90;;;;;;5082476;28;20094;-80
2022/12/02 12:14:12;;;;;;;17.85;10.27;;;3.10;99.90;;;;;;5108924;28;20409;-74
2022/12/02 12:16:45;;;;;;;22.85;11.25;;;3.10;99.90;;;;;;5094382;28;20099;-77
2022/12/02 12:19:10;;;;;;;18.85;10.30;;;3.20;99.90;;;;;;5092485;28;20035;-81
2022/12/02 12:21:46;;;;;;;19.45;11.10;;;3.10;99.90;;;;;;5089659;28;20032;-75
2022/12/02 12:24:17;;;;;;;18.10;10.00;;;3.10;99.90;;;;;;5099115;28;20016;-73
2022/12/02 12:26:50;;;;;;;19.08;10.40;;;3.10;99.90;;;;;;5097053;28;20024;-78
2022/12/02 12:29:17;;;;;;;17.15;9.55;;;3.10;99.90;;;;;;5103465;28;20071;-74
2022/12/02 12:31:43;;;;;;;18.30;9.77;;;3.10;99.90;;;;;;5107560;28;20024;-75
2022/12/02 12:34:10;;;;;;;17.67;9.88;;;3.10;99.90;;;;;;5091911;28;20034;-78
2022/12/02 12:36:36;;;;;;;17.33;10.43;;;3.00;99.90;;;;;;5098985;28;20031;-76
2022/12/02 12:39:03;;;;;;;20.80;10.25;;;3.00;99.90;;;;;;5105326;28;20113;-74
2022/12/02 12:41:29;;;;;;;16.90;9.85;;;3.10;99.90;;;;;;5107963;28;20095;-73
2022/12/02 12:43:54;;;;;;;17.52;9.77;;;3.10;99.90;;;;;;5100883;28;20437;-73
2022/12/02 12:46:20;;;;;;;18.08;10.23;;;3.10;99.90;;;;;;5096478;28;20087;-73
2022/12/02 12:48:46;;;;;;;15.95;9.05;;;3.10;99.90;;;;;;5086001;28;20028;-73
2022/12/02 12:51:11;;;;;;;13.20;8.27;;;3.20;99.90;;;;;;5090731;28;20867;-73
2022/12/02 12:53:37;;;;;;;14.77;7.50;;;3.30;99.90;;;;;;5101759;28;20460;-73
2022/12/02 12:56:03;;;;;;;11.95;7.35;;;3.20;99.90;;;;;;5094802;28;20062;-72
2022/12/02 12:58:29;;;;;;;12.65;7.70;;;3.30;99.90;;;;;;5097703;28;20028;-73
2022/12/02 13:00:56;;;;;;;12.25;7.53;;;3.20;99.90;;;;;;5099726;28;20081;-72
2022/12/02 13:03:22;;;;;;;14.40;8.52;;;3.10;99.90;;;;;;5078223;28;20024;-74